sensor_id;sensor_type;location;lat;lon;timestamp;pressure;altitude;pressure_sealevel;temperature;humidity
49567;BME280;35472;50.514;30.448;2022-11-14T10:28:26;101169.31;;;10.01;82.08
49567;BME280;35472;50.514;30.448;2022-11-14T10:31:18;101163.63;;;10.43;83.08
49567;BME280;35472;50.514;30.448;2022-11-14T10:34:21;101165.19;;;9.75;84.91
49567;BME280;35472;50.514;30.448;2022-11-14T10:37:17;101164.03;;;9.36;87.39
49567;BME280;35472;50.514;30.448;2022-11-14T10:40:15;101154.78;;;9.60;84.77
49567;BME280;35472;50.514;30.448;2022-11-14T10:43:06;101162.00;;;9.31;88.16
49567;BME280;35472;50.514;30.448;2022-11-14T10:46:00;101156.41;;;9.97;85.10
49567;BME280;35472;50.514;30.448;2022-11-14T10:48:49;101160.94;;;9.67;83.83
49567;BME280;35472;50.514;30.448;2022-11-14T10:51:40;101159.94;;;10.09;82.29
49567;BME280;35472;50.514;30.448;2022-11-14T10:54:32;101153.28;;;10.05;82.50
49567;BME280;35472;50.514;30.448;2022-11-14T10:57:18;101164.09;;;9.88;83.28
49567;BME280;35472;50.514;30.448;2022-11-14T11:00:20;101153.00;;;10.18;80.18
49567;BME280;35472;50.514;30.448;2022-11-14T11:03:05;101147.81;;;10.16;80.75
49567;BME280;35472;50.514;30.448;2022-11-14T11:05:51;101134.53;;;10.48;79.97
49567;BME280;35472;50.514;30.448;2022-11-14T11:08:42;101134.78;;;9.20;84.30
49567;BME280;35472;50.514;30.448;2022-11-14T11:11:55;101147.19;;;9.62;83.82
49567;BME280;35472;50.514;30.448;2022-11-14T11:14:41;101149.44;;;9.89;82.63
49567;BME280;35472;50.514;30.448;2022-11-14T11:17:25;101153.59;;;9.45;84.36
49567;BME280;35472;50.514;30.448;2022-11-14T11:26:04;101141.84;;;9.91;82.28
49567;BME280;35472;50.514;30.448;2022-11-14T11:31:54;101134.41;;;10.55;79.96
49567;BME280;35472;50.514;30.448;2022-11-14T11:34:39;101136.56;;;10.53;79.30
49567;BME280;35472;50.514;30.448;2022-11-14T11:37:25;101130.56;;;10.39;80.07
49567;BME280;35472;50.514;30.448;2022-11-14T11:40:19;101140.75;;;10.89;78.67
49567;BME280;35472;50.514;30.448;2022-11-14T11:43:15;101141.72;;;11.34;76.59
49567;BME280;35472;50.514;30.448;2022-11-14T11:46:04;101144.94;;;10.63;79.46
49567;BME280;35472;50.514;30.448;2022-11-14T11:49:01;101138.44;;;10.81;77.89
49567;BME280;35472;50.514;30.448;2022-11-14T11:51:47;101140.19;;;9.90;82.60
49567;BME280;35472;50.514;30.448;2022-11-14T11:54:58;101129.84;;;10.04;83.28
49567;BME280;35472;50.514;30.448;2022-11-14T11:57:46;101121.22;;;10.97;79.31
49567;BME280;35472;50.514;30.448;2022-11-14T12:00:32;101123.56;;;10.03;83.75
49567;BME280;35472;50.514;30.448;2022-11-14T12:03:16;101134.75;;;10.18;83.42
49567;BME280;35472;50.514;30.448;2022-11-14T12:09:20;101132.22;;;10.40;82.28
49567;BME280;35472;50.514;30.448;2022-11-14T12:15:15;101130.47;;;10.34;83.00
49567;BME280;35472;50.514;30.448;2022-11-14T12:18:19;101128.66;;;10.00;83.17
49567;BME280;35472;50.514;30.448;2022-11-14T12:21:11;101121.50;;;9.58;86.06
49567;BME280;35472;50.514;30.448;2022-11-14T12:30:19;101122.34;;;9.47;88.10
49567;BME280;35472;50.514;30.448;2022-11-14T12:33:10;101116.09;;;9.11;90.82
49567;BME280;35472;50.514;30.448;2022-11-14T12:35:58;101122.34;;;9.47;88.79
49567;BME280;35472;50.514;30.448;2022-11-14T12:38:47;101116.66;;;9.60;88.15
49567;BME280;35472;50.514;30.448;2022-11-14T12:41:34;101118.59;;;9.88;86.67
49567;BME280;35472;50.514;30.448;2022-11-14T12:47:20;101118.53;;;9.83;86.28
49567;BME280;35472;50.514;30.448;2022-11-14T12:50:29;101114.53;;;9.51;87.68
49567;BME280;35472;50.514;30.448;2022-11-14T12:53:36;101117.94;;;9.46;88.48
49567;BME280;35472;50.514;30.448;2022-11-14T13:05:38;101113.72;;;8.01;97.39
49567;BME280;35472;50.514;30.448;2022-11-14T13:14:52;101121.03;;;8.19;96.67
49567;BME280;35472;50.514;30.448;2022-11-14T13:18:18;101113.91;;;8.18;96.53
49567;BME280;35472;50.514;30.448;2022-11-14T13:21:27;101105.94;;;8.05;98.43
49567;BME280;35472;50.514;30.448;2022-11-14T13:27:42;101109.81;;;7.42;100.00
49567;BME280;35472;50.514;30.448;2022-11-14T13:31:04;101116.75;;;7.13;100.00
49567;BME280;35472;50.514;30.448;2022-11-14T13:33:56;101123.00;;;7.57;100.00
49567;BME280;35472;50.514;30.448;2022-11-14T13:40:03;101108.59;;;7.75;100.00
49567;BME280;35472;50.514;30.448;2022-11-14T13:46:41;101107.63;;;6.58;100.00
49567;BME280;35472;50.514;30.448;2022-11-14T13:52:17;101105.97;;;6.57;100.00
49567;BME280;35472;50.514;30.448;2022-11-14T13:55:02;101114.63;;;6.65;100.00
49567;BME280;35472;50.514;30.448;2022-11-14T13:58:24;101118.94;;;6.48;100.00
49567;BME280;35472;50.514;30.448;2022-11-14T14:10:00;101115.19;;;6.11;100.00
49567;BME280;35472;50.514;30.448;2022-11-14T14:16:16;101118.06;;;6.16;100.00
49567;BME280;35472;50.514;30.448;2022-11-14T14:19:03;101124.59;;;6.08;100.00
49567;BME280;35472;50.514;30.448;2022-11-14T14:22:07;101123.63;;;5.76;100.00
49567;BME280;35472;50.514;30.448;2022-11-14T14:25:08;101125.34;;;5.57;100.00
49567;BME280;35472;50.514;30.448;2022-11-14T14:28:31;101133.88;;;5.61;100.00
49567;BME280;35472;50.514;30.448;2022-11-14T14:31:18;101119.09;;;5.57;100.00
49567;BME280;35472;50.514;30.448;2022-11-14T14:34:29;101126.22;;;5.38;100.00
49567;BME280;35472;50.514;30.448;2022-11-14T14:37:24;101121.25;;;5.35;100.00
49567;BME280;35472;50.514;30.448;2022-11-14T14:40:25;101127.50;;;5.29;100.00
49567;BME280;35472;50.514;30.448;2022-11-14T14:43:24;101126.69;;;5.22;100.00
49567;BME280;35472;50.514;30.448;2022-11-14T14:46:11;101120.66;;;5.00;100.00
49567;BME280;35472;50.514;30.448;2022-11-14T14:48:56;101121.63;;;5.38;100.00
49567;BME280;35472;50.514;30.448;2022-11-14T14:51:41;101129.97;;;5.37;100.00
49567;BME280;35472;50.514;30.448;2022-11-14T14:54:28;101131.03;;;5.29;100.00
49567;BME280;35472;50.514;30.448;2022-11-14T14:57:17;101123.81;;;5.81;100.00
49567;BME280;35472;50.514;30.448;2022-11-14T15:00:25;101122.41;;;6.62;100.00
49567;BME280;35472;50.514;30.448;2022-11-14T15:03:09;101134.66;;;5.81;100.00
49567;BME280;35472;50.514;30.448;2022-11-14T15:06:02;101126.31;;;5.76;100.00
49567;BME280;35472;50.514;30.448;2022-11-14T15:08:47;101123.88;;;5.68;100.00
49567;BME280;35472;50.514;30.448;2022-11-14T15:11:33;101136.06;;;6.04;100.00
49567;BME280;35472;50.514;30.448;2022-11-14T15:14:25;101128.91;;;5.45;100.00
49567;BME280;35472;50.514;30.448;2022-11-14T15:17:10;101125.53;;;5.62;100.00
49567;BME280;35472;50.514;30.448;2022-11-14T15:19:55;101125.81;;;5.21;100.00
49567;BME280;35472;50.514;30.448;2022-11-14T15:22:39;101126.34;;;5.70;100.00
49567;BME280;35472;50.514;30.448;2022-11-14T15:25:23;101127.00;;;5.65;100.00
49567;BME280;35472;50.514;30.448;2022-11-14T15:28:20;101138.31;;;5.42;100.00
49567;BME280;35472;50.514;30.448;2022-11-14T15:31:04;101131.22;;;5.41;100.00
49567;BME280;35472;50.514;30.448;2022-11-14T15:34:18;101131.94;;;5.95;100.00
49567;BME280;35472;50.514;30.448;2022-11-14T15:40:16;101131.06;;;6.07;100.00
49567;BME280;35472;50.514;30.448;2022-11-14T15:43:37;101135.13;;;6.23;100.00
49567;BME280;35472;50.514;30.448;2022-11-14T15:46:47;101128.16;;;6.40;100.00
49567;BME280;35472;50.514;30.448;2022-11-14T15:49:31;101132.56;;;6.35;100.00
49567;BME280;35472;50.514;30.448;2022-11-14T15:55:16;101129.69;;;6.93;100.00
49567;BME280;35472;50.514;30.448;2022-11-14T15:58:00;101126.16;;;6.23;100.00
49567;BME280;35472;50.514;30.448;2022-11-14T16:00:50;101127.75;;;6.43;100.00
49567;BME280;35472;50.514;30.448;2022-11-14T16:03:35;101120.44;;;6.44;100.00
49567;BME280;35472;50.514;30.448;2022-11-14T16:06:18;101115.81;;;6.13;100.00
49567;BME280;35472;50.514;30.448;2022-11-14T19:50:22;101068.63;;;5.11;100.00
49567;BME280;35472;50.514;30.448;2022-11-14T19:53:08;101077.38;;;5.13;100.00
49567;BME280;35472;50.514;30.448;2022-11-14T19:55:58;101082.34;;;5.23;100.00
49567;BME280;35472;50.514;30.448;2022-11-14T19:58:45;101073.50;;;6.12;100.00
49567;BME280;35472;50.514;30.448;2022-11-14T20:01:30;101067.50;;;6.66;100.00
49567;BME280;35472;50.514;30.448;2022-11-14T20:04:13;101071.78;;;6.81;100.00
49567;BME280;35472;50.514;30.448;2022-11-14T20:06:58;101067.53;;;6.35;100.00
49567;BME280;35472;50.514;30.448;2022-11-14T20:09:42;101067.41;;;6.48;100.00
49567;BME280;35472;50.514;30.448;2022-11-14T20:12:25;101066.88;;;6.08;100.00
49567;BME280;35472;50.514;30.448;2022-11-14T20:15:09;101060.78;;;6.12;100.00
49567;BME280;35472;50.514;30.448;2022-11-14T20:17:53;101058.94;;;6.69;100.00
49567;BME280;35472;50.514;30.448;2022-11-14T20:20:37;101057.69;;;6.40;100.00
49567;BME280;35472;50.514;30.448;2022-11-14T20:23:21;101060.63;;;6.39;100.00
49567;BME280;35472;50.514;30.448;2022-11-14T20:26:06;101060.25;;;6.60;100.00
49567;BME280;35472;50.514;30.448;2022-11-14T20:28:51;101057.72;;;6.34;100.00
49567;BME280;35472;50.514;30.448;2022-11-14T20:31:36;101058.78;;;6.33;100.00
49567;BME280;35472;50.514;30.448;2022-11-14T20:34:21;101057.78;;;6.27;100.00
49567;BME280;35472;50.514;30.448;2022-11-14T20:37:05;101055.38;;;6.06;100.00
49567;BME280;35472;50.514;30.448;2022-11-14T20:39:49;101065.63;;;6.04;100.00
49567;BME280;35472;50.514;30.448;2022-11-14T20:42:33;101051.47;;;6.02;100.00
49567;BME280;35472;50.514;30.448;2022-11-14T20:45:17;101049.19;;;6.30;100.00
49567;BME280;35472;50.514;30.448;2022-11-14T20:48:01;101042.97;;;5.91;100.00
49567;BME280;35472;50.514;30.448;2022-11-14T20:50:45;101045.28;;;6.26;100.00
49567;BME280;35472;50.514;30.448;2022-11-14T20:53:30;101045.16;;;5.63;100.00
49567;BME280;35472;50.514;30.448;2022-11-14T20:56:15;101052.72;;;5.99;100.00
49567;BME280;35472;50.514;30.448;2022-11-14T20:58:59;101052.69;;;6.06;100.00
49567;BME280;35472;50.514;30.448;2022-11-14T21:01:44;101050.47;;;5.96;100.00
49567;BME280;35472;50.514;30.448;2022-11-14T21:04:28;101042.00;;;6.17;100.00
49567;BME280;35472;50.514;30.448;2022-11-14T21:07:12;101044.78;;;6.04;100.00
49567;BME280;35472;50.514;30.448;2022-11-14T21:09:56;101041.44;;;5.57;100.00
49567;BME280;35472;50.514;30.448;2022-11-14T21:13:06;101048.41;;;5.91;100.00
49567;BME280;35472;50.514;30.448;2022-11-14T21:16:12;101049.56;;;6.09;100.00
49567;BME280;35472;50.514;30.448;2022-11-14T21:18:57;101052.19;;;6.22;100.00
49567;BME280;35472;50.514;30.448;2022-11-14T21:21:42;101046.53;;;6.24;100.00
49567;BME280;35472;50.514;30.448;2022-11-14T21:24:26;101046.44;;;6.37;100.00
49567;BME280;35472;50.514;30.448;2022-11-14T21:27:10;101038.81;;;6.27;100.00
49567;BME280;35472;50.514;30.448;2022-11-14T21:29:55;101033.19;;;6.54;100.00
49567;BME280;35472;50.514;30.448;2022-11-14T21:32:39;101039.75;;;6.89;100.00
49567;BME280;35472;50.514;30.448;2022-11-14T21:35:23;101022.31;;;6.79;100.00
49567;BME280;35472;50.514;30.448;2022-11-14T21:38:07;101025.34;;;6.45;100.00
49567;BME280;35472;50.514;30.448;2022-11-14T21:40:54;101017.41;;;6.12;100.00
49567;BME280;35472;50.514;30.448;2022-11-14T21:43:38;101021.09;;;5.93;100.00
49567;BME280;35472;50.514;30.448;2022-11-14T21:46:22;101008.38;;;5.87;100.00
49567;BME280;35472;50.514;30.448;2022-11-14T21:49:08;101008.38;;;5.87;100.00
49567;BME280;35472;50.514;30.448;2022-11-14T22:10:09;65520.50;;;-143.57;100.00
49567;BME280;35472;50.514;30.448;2022-11-14T22:12:53;65520.50;;;-143.57;100.00
49567;BME280;35472;50.514;30.448;2022-11-14T22:15:37;65520.50;;;-143.57;100.00
49567;BME280;35472;50.514;30.448;2022-11-14T22:18:21;65520.50;;;-143.57;100.00
49567;BME280;35472;50.514;30.448;2022-11-14T22:21:26;65520.50;;;-143.57;100.00
49567;BME280;35472;50.514;30.448;2022-11-14T22:24:10;65520.50;;;-143.57;100.00
49567;BME280;35472;50.514;30.448;2022-11-14T22:26:54;65520.50;;;-143.57;100.00
49567;BME280;35472;50.514;30.448;2022-11-14T22:29:39;65520.50;;;-143.57;100.00
49567;BME280;35472;50.514;30.448;2022-11-14T22:32:23;65520.50;;;-143.57;100.00
49567;BME280;35472;50.514;30.448;2022-11-14T22:35:07;65520.50;;;-143.57;100.00
49567;BME280;35472;50.514;30.448;2022-11-14T22:37:50;65520.50;;;-143.57;100.00
49567;BME280;35472;50.514;30.448;2022-11-14T22:40:34;65520.50;;;-143.57;100.00
49567;BME280;35472;50.514;30.448;2022-11-14T22:43:18;65520.50;;;-143.57;100.00
49567;BME280;35472;50.514;30.448;2022-11-14T22:46:05;65520.50;;;-143.57;100.00
49567;BME280;35472;50.514;30.448;2022-11-14T22:48:49;65520.50;;;-143.57;100.00
49567;BME280;35472;50.514;30.448;2022-11-14T22:51:33;65520.50;;;-143.57;100.00
49567;BME280;35472;50.514;30.448;2022-11-14T22:54:18;65520.50;;;-143.57;100.00
49567;BME280;35472;50.514;30.448;2022-11-14T22:57:02;65520.50;;;-143.57;100.00
49567;BME280;35472;50.514;30.448;2022-11-14T22:59:46;65520.50;;;-143.57;100.00
49567;BME280;35472;50.514;30.448;2022-11-14T23:02:30;65520.50;;;-143.57;100.00
49567;BME280;35472;50.514;30.448;2022-11-14T23:05:14;65520.50;;;-143.57;100.00
49567;BME280;35472;50.514;30.448;2022-11-14T23:07:58;65520.50;;;-143.57;100.00
49567;BME280;35472;50.514;30.448;2022-11-14T23:10:43;65520.50;;;-143.57;100.00
49567;BME280;35472;50.514;30.448;2022-11-14T23:13:27;65520.50;;;-143.57;100.00
49567;BME280;35472;50.514;30.448;2022-11-14T23:16:13;65520.50;;;-143.57;100.00
49567;BME280;35472;50.514;30.448;2022-11-14T23:19:00;65520.50;;;-143.57;100.00
49567;BME280;35472;50.514;30.448;2022-11-14T23:21:44;65520.50;;;-143.57;100.00
49567;BME280;35472;50.514;30.448;2022-11-14T23:24:28;65520.50;;;-143.57;100.00
49567;BME280;35472;50.514;30.448;2022-11-14T23:27:12;65520.50;;;-143.57;100.00
49567;BME280;35472;50.514;30.448;2022-11-14T23:29:56;65520.50;;;-143.57;100.00
49567;BME280;35472;50.514;30.448;2022-11-14T23:32:40;65520.50;;;-143.57;100.00
49567;BME280;35472;50.514;30.448;2022-11-14T23:35:24;65520.50;;;-143.57;100.00
49567;BME280;35472;50.514;30.448;2022-11-14T23:38:08;65520.50;;;-143.57;100.00
49567;BME280;35472;50.514;30.448;2022-11-14T23:40:54;65520.50;;;-143.57;100.00
49567;BME280;35472;50.514;30.448;2022-11-14T23:43:38;65520.50;;;-143.57;100.00
49567;BME280;35472;50.514;30.448;2022-11-14T23:46:22;65520.50;;;-143.57;100.00
49567;BME280;35472;50.514;30.448;2022-11-14T23:49:06;65520.50;;;-143.57;100.00
49567;BME280;35472;50.514;30.448;2022-11-14T23:51:50;65520.50;;;-143.57;100.00
49567;BME280;35472;50.514;30.448;2022-11-14T23:54:34;65520.50;;;-143.57;100.00
49567;BME280;35472;50.514;30.448;2022-11-14T23:57:17;65520.50;;;-143.57;100.00
